RJFKRJFM

Guest
Details From RJFK - KAGOSHIMA
To RJFM - MIYAZAKI
Flight Number -
Tags generated
Created
Modified
Stats Distance 37 nm / 69 km
Max Altitude 100 ft / 30 m
Waypoints 3
Social Downloads 2
Likes 0
Share VATSIM

Download

Looking for another format? Having issues loading an existing format? Contact us
Advertisement - Login to hide

Notes

Basic altitude profile: - Ascent Rate: 2500ft/min - Ascent Speed: 250kts - Cruise Altitude: 35000ft - Cruise Speed: 420kts - Descent Rate: 1500ft/min - Descent Speed: 250kts Options: - Use NATs: yes - Use PACOTS: yes - Use low airways: yes - Use high airways: yes

Route

RJFK MZE RJFM

ID Type Via Altitude Latitude Longitude Leg Dist Tot Dist Heading (true) Name
O RJFK APT - 0 ft / 0 m 31.80340˚ 130.71941˚ - 0 nm - KAGOSHIMA
MZE VOR - 100 ft / 30 m 31.87873˚ 131.43747˚ 36 nm 36 nm 83° / 83° MIYAZAKI VOR-DME
O RJFM APT - 0 ft / 0 m 31.87713˚ 131.44845˚ 0 nm 37 nm 100° / 100° MIYAZAKI

Altitude Profile

Advertisement - Login to hide

RJFK

Details ICAO RJFK (KOJ)
Name KAGOSHIMA
Region Japan
Timezone Asia/Tokyo (UTC+9.0)
Stats Elevation 906 ft / 276 m (AMSL)
Location 31.803400° 130.719405°
Runways 1
Magnetic Variation 6.912° W

METAR

RJFK 181100Z 34007KT 9999 FEW030 03/M04 Q1027

Decode

TAF

TAF RJFK 180508Z 1806/1912 32010KT 9999 FEW030 SCT040

Decode

Departure Runways

ID Width Length Bearing (true) Bearing (mag) Surface Threshold Offset Overrun Length
16 150 ft / 46 m 9,861 ft / 3,006 m 150.11° 157.02° Asphalt 0 ft / 0 m 200 ft / 61 m
34 150 ft / 46 m 9,861 ft / 3,006 m 330.11° 337.02° Asphalt 0 ft / 0 m 200 ft / 61 m

RJFM

Details ICAO RJFM (KMI)
Name MIYAZAKI
Region Japan
Timezone Asia/Tokyo (UTC+9.0)
Stats Elevation 20 ft / 6 m (AMSL)
Location 31.877128° 131.448447°
Runways 1
Magnetic Variation 6.933° W

METAR

RJFM 181100Z 26008KT 9999 FEW030 05/M02 Q1027

Decode

TAF

TAF RJFM 180518Z 1806/1912 13005KT 9999 FEW030 BECMG 1809/1811 27012KT

Decode

Destination Runways

ID Width Length Bearing (true) Bearing (mag) Surface Threshold Offset Overrun Length
09 150 ft / 46 m 8,187 ft / 2,496 m 85.16° 92.09° Asphalt 0 ft / 0 m 200 ft / 61 m
27 150 ft / 46 m 8,187 ft / 2,496 m 265.18° 272.11° Asphalt 0 ft / 0 m 200 ft / 61 m

Approach Navaids

Runway Type Ident Frequency Range Bearing (true) Bearing (mag) Slope Elevation
27 Localiser IMZ 108.90 MHz 18 nm / 33 km 265.16° 272.10° - 54 ft / 16 m (AMSL)
27 Glidescope IMZ 108.90 MHz 10 nm / 19 km 265.17° 272.10° 3.00° 54 ft / 16 m (AMSL)
27 DME IMZ 108.90 MHz 18 nm / 33 km - - - 34 ft / 10 m (AMSL)

Popular Alternatives